createdAt,value
2022-10-11T00:01:27.458Z,10.63
2022-10-11T00:06:30.173Z,10.57
2022-10-11T00:11:33.751Z,10.49
2022-10-11T00:16:38.847Z,10.57
2022-10-11T00:21:41.385Z,10.45
2022-10-11T00:26:46.962Z,10.40
2022-10-11T00:31:52.807Z,10.40
2022-10-11T00:36:55.343Z,10.32
2022-10-11T00:41:58.528Z,10.31
2022-10-11T00:47:05.735Z,10.26
2022-10-11T00:52:16.162Z,10.24
2022-10-11T00:57:22.332Z,10.23
2022-10-11T01:02:26.248Z,10.21
2022-10-11T01:07:32.402Z,10.21
2022-10-11T01:12:37.261Z,10.19
2022-10-11T01:17:48.144Z,10.16
2022-10-11T01:23:19.881Z,10.15
2022-10-11T01:28:31.483Z,9.99
2022-10-11T01:33:42.068Z,10.01
2022-10-11T01:38:51.031Z,10.01
2022-10-11T01:43:58.598Z,9.97
2022-10-11T01:49:04.381Z,10.01
2022-10-11T01:54:19.320Z,9.91
2022-10-11T01:59:37.241Z,9.92
2022-10-11T02:04:49.460Z,9.87
2022-10-11T02:09:57.412Z,9.77
2022-10-11T02:15:03.340Z,9.73
2022-10-11T02:20:13.381Z,9.69
2022-10-11T02:25:19.708Z,9.75
2022-10-11T02:30:22.331Z,9.54
2022-10-11T02:35:30.416Z,9.56
2022-10-11T02:40:36.060Z,9.54
2022-10-11T02:45:42.583Z,9.36
2022-10-11T02:50:46.850Z,9.37
2022-10-11T02:55:51.505Z,9.36
2022-10-11T03:00:54.077Z,9.03
2022-10-11T03:06:01.460Z,9.21
2022-10-11T03:11:04.302Z,9.16
2022-10-11T03:16:06.839Z,9.23
2022-10-11T03:21:10.895Z,9.20
2022-10-11T03:26:13.464Z,9.15
2022-10-11T03:31:16.259Z,9.09
2022-10-11T03:36:20.244Z,9.06
2022-10-11T03:41:22.896Z,9.12
2022-10-11T03:46:25.548Z,9.11
2022-10-11T03:51:29.447Z,9.04
2022-10-11T03:56:31.959Z,9.00
2022-10-11T04:01:37.885Z,8.95
2022-10-11T04:06:41.880Z,8.90
2022-10-11T04:11:44.427Z,8.85
2022-10-11T04:16:47.000Z,8.85
2022-10-11T04:21:50.918Z,8.76
2022-10-11T04:26:53.436Z,8.78
2022-10-11T04:31:56.008Z,8.76
2022-10-11T04:36:59.868Z,8.78
2022-10-11T04:42:02.412Z,8.75
2022-10-11T04:47:05.226Z,8.69
2022-10-11T04:52:09.190Z,8.63
2022-10-11T04:57:11.740Z,8.58
2022-10-11T05:02:14.380Z,8.60
2022-10-11T05:07:18.331Z,8.47
2022-10-11T05:12:20.891Z,8.42
2022-10-11T05:17:24.117Z,7.90
2022-10-11T05:22:27.974Z,8.51
2022-10-11T05:27:30.504Z,8.52
2022-10-11T05:32:33.120Z,8.48
2022-10-11T05:37:37.076Z,8.07
2022-10-11T05:42:39.672Z,8.11
2022-10-11T05:47:42.193Z,8.07
2022-10-11T05:52:46.482Z,8.22
2022-10-11T05:57:49.076Z,8.33
2022-10-11T06:02:51.611Z,8.21
2022-10-11T06:07:55.529Z,8.23
2022-10-11T06:12:58.281Z,8.27
2022-10-11T06:18:01.623Z,8.26
2022-10-11T06:23:05.573Z,8.27
2022-10-11T06:28:08.316Z,8.34
2022-10-11T06:33:10.869Z,8.36
2022-10-11T06:38:15.232Z,8.40
2022-10-11T06:43:17.819Z,8.44
2022-10-11T06:48:20.395Z,8.50
2022-10-11T06:53:24.397Z,8.54
2022-10-11T06:58:26.904Z,8.66
2022-10-11T07:03:29.908Z,8.81
2022-10-11T07:08:34.496Z,8.84
2022-10-11T07:13:37.651Z,8.62
2022-10-11T07:18:41.032Z,9.01
2022-10-11T07:23:45.014Z,9.02
2022-10-11T07:28:48.292Z,9.11
2022-10-11T07:33:51.266Z,9.22
2022-10-11T07:38:55.345Z,9.39
2022-10-11T07:43:57.890Z,9.47
2022-10-11T07:49:00.972Z,9.51
2022-10-11T07:54:07.362Z,9.75
2022-10-11T07:59:12.019Z,9.92
2022-10-11T08:04:14.727Z,9.97
2022-10-11T08:09:18.786Z,10.11
2022-10-11T08:14:21.870Z,10.21
2022-10-11T08:19:24.516Z,10.26
2022-10-11T08:24:28.617Z,10.34
2022-10-11T08:29:31.227Z,10.57
2022-10-11T08:34:34.179Z,10.69
2022-10-11T08:39:38.242Z,10.83
2022-10-11T08:45:09.545Z,10.92
2022-10-11T08:50:07.810Z,11.04
2022-10-11T08:55:20.775Z,11.17
2022-10-11T09:00:25.101Z,11.27
2022-10-11T09:05:34.839Z,11.41
2022-10-11T09:10:58.200Z,11.54
2022-10-11T09:16:11.369Z,11.80
2022-10-11T09:21:24.041Z,11.92
2022-10-11T09:26:30.025Z,12.00
2022-10-11T09:31:33.446Z,11.79
2022-10-11T09:36:42.626Z,11.78
2022-10-11T09:41:52.953Z,12.26
2022-10-11T09:46:56.901Z,12.40
2022-10-11T09:52:03.138Z,12.58
2022-10-11T09:57:07.720Z,12.71
2022-10-11T10:02:28.771Z,12.81
2022-10-11T10:07:33.982Z,12.89
2022-10-11T10:12:38.057Z,12.92
2022-10-11T10:17:48.722Z,13.04
2022-10-11T10:22:52.329Z,13.18
2022-10-11T10:28:03.272Z,13.29
2022-10-11T10:33:08.679Z,13.24
2022-10-11T10:38:19.849Z,13.64
2022-10-11T10:43:30.842Z,13.83
2022-10-11T10:49:18.760Z,13.90
2022-10-11T10:54:14.556Z,13.91
2022-10-11T10:59:45.427Z,13.85
2022-10-11T11:04:55.366Z,13.80
2022-10-11T11:10:04.128Z,13.76
2022-10-11T11:15:13.045Z,13.94
2022-10-11T11:20:27.516Z,14.19
2022-10-11T11:25:43.886Z,14.39
2022-10-11T11:31:00.816Z,14.77
2022-10-11T11:36:06.634Z,15.22
2022-10-11T11:41:15.178Z,15.67
2022-10-11T11:46:25.214Z,15.93
2022-10-11T11:51:31.943Z,15.96
2022-10-11T11:56:48.386Z,15.86
2022-10-11T12:01:58.168Z,15.51
2022-10-11T12:07:21.631Z,15.17
2022-10-11T12:12:30.841Z,14.82
2022-10-11T12:17:38.039Z,14.94
2022-10-11T12:23:00.051Z,15.14
2022-10-11T12:28:23.806Z,16.30
2022-10-11T12:33:50.385Z,16.75
2022-10-11T12:39:38.078Z,17.27
2022-10-11T12:44:48.293Z,17.82
2022-10-11T12:50:05.959Z,18.05
2022-10-11T12:55:27.441Z,18.30
2022-10-11T13:00:33.089Z,18.42
2022-10-11T13:05:45.154Z,18.94
2022-10-11T13:10:49.142Z,18.90
2022-10-11T13:15:53.829Z,19.02
2022-10-11T13:20:57.759Z,18.89
2022-10-11T13:26:02.588Z,18.66
2022-10-11T13:31:05.730Z,18.78
2022-10-11T13:36:17.535Z,18.72
2022-10-11T13:41:20.779Z,18.34
2022-10-11T13:46:24.984Z,18.27
2022-10-11T13:51:33.276Z,17.99
2022-10-11T13:56:39.584Z,17.66
2022-10-11T14:01:46.351Z,17.58
2022-10-11T14:06:56.775Z,17.50
2022-10-11T14:12:31.115Z,17.36
2022-10-11T14:17:39.772Z,17.02
2022-10-11T14:22:44.014Z,17.11
2022-10-11T14:27:46.789Z,17.04
2022-10-11T14:32:51.599Z,16.36
2022-10-11T14:37:55.608Z,16.81
2022-10-11T14:42:58.560Z,16.70
2022-10-11T14:48:01.061Z,16.35
2022-10-11T14:53:05.727Z,16.19
2022-10-11T14:58:10.443Z,16.09
2022-10-11T15:03:13.370Z,15.84
2022-10-11T15:08:17.473Z,15.64
2022-10-11T15:13:20.061Z,15.50
2022-10-11T15:18:22.686Z,15.35
2022-10-11T15:23:26.568Z,15.35
2022-10-11T15:28:31.245Z,15.24
2022-10-11T15:33:33.876Z,15.14
2022-10-11T15:38:37.880Z,15.08
2022-10-11T15:43:41.125Z,15.07
2022-10-11T15:48:44.841Z,15.05
2022-10-11T15:53:48.996Z,14.97
2022-10-11T15:58:51.930Z,14.82
2022-10-11T16:03:54.670Z,14.75
2022-10-11T16:08:58.527Z,14.70
2022-10-11T16:14:01.088Z,14.61
2022-10-11T16:19:03.891Z,14.49
2022-10-11T16:24:08.831Z,14.46
2022-10-11T16:29:11.546Z,14.36
2022-10-11T16:34:14.151Z,14.28
2022-10-11T16:39:19.729Z,14.20
2022-10-11T16:44:25.137Z,14.15
2022-10-11T16:49:29.572Z,14.10
2022-10-11T16:54:33.541Z,13.97
2022-10-11T16:59:36.056Z,13.81
2022-10-11T17:04:38.624Z,13.72
2022-10-11T17:09:44.370Z,13.59
2022-10-11T17:14:47.966Z,13.48
2022-10-11T17:19:50.745Z,13.35
2022-10-11T17:24:54.675Z,13.21
2022-10-11T17:29:57.525Z,13.15
2022-10-11T17:35:02.333Z,13.05
2022-10-11T17:40:07.292Z,12.81
2022-10-11T17:45:10.197Z,12.75
2022-10-11T17:50:12.755Z,12.75
2022-10-11T17:55:16.803Z,12.64
2022-10-11T18:00:19.558Z,12.51
2022-10-11T18:05:22.366Z,12.45
2022-10-11T18:10:27.406Z,12.40
2022-10-11T18:15:30.808Z,12.27
2022-10-11T18:20:34.051Z,12.14
2022-10-11T18:25:38.256Z,12.15
2022-10-11T18:30:43.405Z,12.10
2022-10-11T18:35:47.258Z,11.95
2022-10-11T18:40:54.247Z,12.01
2022-10-11T18:46:04.939Z,11.84
2022-10-11T18:51:10.655Z,11.84
2022-10-11T18:56:17.035Z,11.58
2022-10-11T19:01:23.371Z,11.46
2022-10-11T19:06:28.816Z,11.50
2022-10-11T19:11:33.525Z,11.48
2022-10-11T19:16:38.552Z,11.39
2022-10-11T19:21:41.091Z,11.35
2022-10-11T19:26:45.838Z,11.46
2022-10-11T19:31:50.861Z,11.28
2022-10-11T19:36:54.403Z,11.24
2022-10-11T19:42:00.124Z,11.22
2022-10-11T19:47:05.367Z,10.95
2022-10-11T19:52:09.532Z,10.92
2022-10-11T19:57:13.521Z,10.90
2022-10-11T20:02:16.635Z,10.87
2022-10-11T20:07:19.227Z,10.85
2022-10-11T20:12:24.493Z,10.74
2022-10-11T20:17:48.032Z,10.50
2022-10-11T20:22:51.056Z,10.47
2022-10-11T20:27:55.004Z,10.50
2022-10-11T20:32:57.722Z,10.48
2022-10-11T20:38:00.857Z,10.41
2022-10-11T20:43:05.063Z,10.33
2022-10-11T20:48:07.587Z,10.27
2022-10-11T20:53:15.550Z,10.30
2022-10-11T20:58:20.895Z,10.23
2022-10-11T21:03:23.855Z,10.26
2022-10-11T21:08:26.555Z,10.21
2022-10-11T21:13:30.902Z,10.15
2022-10-11T21:18:33.772Z,10.11
2022-10-11T21:23:36.468Z,10.04
2022-10-11T21:28:41.517Z,9.87
2022-10-11T21:33:44.977Z,9.88
2022-10-11T21:38:47.980Z,9.65
2022-10-11T21:43:52.346Z,9.66
2022-10-11T21:48:55.239Z,9.61
2022-10-11T21:54:00.141Z,9.63
2022-10-11T21:59:06.641Z,9.70
2022-10-11T22:04:12.731Z,9.66
2022-10-11T22:09:15.396Z,9.58
2022-10-11T22:14:19.622Z,9.57
2022-10-11T22:19:22.698Z,9.47
2022-10-11T22:24:25.625Z,9.52
2022-10-11T22:29:34.021Z,9.38
2022-10-11T22:34:37.075Z,9.46
2022-10-11T22:39:39.732Z,9.42
2022-10-11T22:44:45.274Z,9.35
2022-10-11T22:49:48.251Z,9.33
2022-10-11T22:54:51.008Z,9.25
2022-10-11T22:59:54.990Z,9.05
2022-10-11T23:04:58.322Z,9.03
2022-10-11T23:10:00.850Z,9.02
2022-10-11T23:15:07.165Z,8.86
2022-10-11T23:20:10.670Z,8.86
2022-10-11T23:25:13.298Z,8.97
2022-10-11T23:30:17.571Z,8.93
2022-10-11T23:35:20.414Z,8.95
2022-10-11T23:40:23.236Z,8.92
2022-10-11T23:45:27.901Z,8.84
2022-10-11T23:50:30.785Z,8.74
2022-10-11T23:55:33.376Z,8.71
